Oostburg, Wisconsin
Current Conditions -  °F | °C
As of 2:53 AM on Friday 31 Oct 2014 (Local Time) from KSBM Reporting Station
Light Rain Light Rain  
Wind Chill: 29°   Ceiling: 2400
Heat Index: 38°   Visibility: 10mi
Dew Point: 32°   Wind: 16mph
Humidity: 79%   Direction: 320°NW
Pressure: 30.03"   Gusts: NA
Location:  43.62°N, 87.79°W
Report Text: KSBM 310753Z AUTO 32014KT 10SM -RA BKN024 BKN031 OVC049 03/00 A3003 RMK AO2 RAB40 SLP172 P0000 T00330000
Loading
Personal Weather Stations






























Interactive Weather Map New forecast layout! Learn more

10-Day Weather Forecast

Advertisements
Track Severe Weather on mobile